sensor_id;sensor_type;location;lat;lon;timestamp;P1;durP1;ratioP1;P2;durP2;ratioP2
46290;SDS011;32023;44.444;26.006;2023-01-29T00:01:57;39.08;;;22.90;;
46290;SDS011;32023;44.444;26.006;2023-01-29T00:04:23;43.15;;;24.38;;
46290;SDS011;32023;44.444;26.006;2023-01-29T00:06:49;46.08;;;23.60;;
46290;SDS011;32023;44.444;26.006;2023-01-29T00:09:16;47.65;;;26.60;;
46290;SDS011;32023;44.444;26.006;2023-01-29T00:11:42;46.35;;;25.60;;
46290;SDS011;32023;44.444;26.006;2023-01-29T00:14:09;50.50;;;27.58;;
46290;SDS011;32023;44.444;26.006;2023-01-29T00:16:35;51.65;;;27.92;;
46290;SDS011;32023;44.444;26.006;2023-01-29T00:19:02;50.25;;;26.13;;
46290;SDS011;32023;44.444;26.006;2023-01-29T00:21:28;51.88;;;27.92;;
46290;SDS011;32023;44.444;26.006;2023-01-29T00:23:56;52.55;;;27.73;;
46290;SDS011;32023;44.444;26.006;2023-01-29T00:26:22;52.42;;;28.60;;
46290;SDS011;32023;44.444;26.006;2023-01-29T00:28:48;51.30;;;28.85;;
46290;SDS011;32023;44.444;26.006;2023-01-29T00:31:19;50.47;;;28.00;;
46290;SDS011;32023;44.444;26.006;2023-01-29T00:33:47;52.53;;;28.67;;
46290;SDS011;32023;44.444;26.006;2023-01-29T00:36:14;53.83;;;29.35;;
46290;SDS011;32023;44.444;26.006;2023-01-29T00:38:42;60.65;;;29.02;;
46290;SDS011;32023;44.444;26.006;2023-01-29T00:41:09;52.95;;;27.15;;
46290;SDS011;32023;44.444;26.006;2023-01-29T00:43:57;43.58;;;22.88;;
46290;SDS011;32023;44.444;26.006;2023-01-29T00:46:42;49.97;;;25.67;;
46290;SDS011;32023;44.444;26.006;2023-01-29T00:49:09;43.45;;;24.52;;
46290;SDS011;32023;44.444;26.006;2023-01-29T00:51:36;45.92;;;23.30;;
46290;SDS011;32023;44.444;26.006;2023-01-29T00:54:04;45.42;;;24.05;;
46290;SDS011;32023;44.444;26.006;2023-01-29T00:56:35;52.42;;;25.85;;
46290;SDS011;32023;44.444;26.006;2023-01-29T00:59:02;47.28;;;25.17;;
46290;SDS011;32023;44.444;26.006;2023-01-29T01:01:28;44.05;;;23.88;;
46290;SDS011;32023;44.444;26.006;2023-01-29T01:04:13;40.22;;;22.60;;
46290;SDS011;32023;44.444;26.006;2023-01-29T01:06:40;46.30;;;23.25;;
46290;SDS011;32023;44.444;26.006;2023-01-29T01:09:08;44.13;;;23.20;;
46290;SDS011;32023;44.444;26.006;2023-01-29T01:11:53;39.08;;;20.42;;
46290;SDS011;32023;44.444;26.006;2023-01-29T01:14:20;36.88;;;19.50;;
46290;SDS011;32023;44.444;26.006;2023-01-29T01:16:46;36.63;;;20.15;;
46290;SDS011;32023;44.444;26.006;2023-01-29T01:19:13;38.08;;;21.52;;
46290;SDS011;32023;44.444;26.006;2023-01-29T01:21:40;33.05;;;19.00;;
46290;SDS011;32023;44.444;26.006;2023-01-29T01:24:12;31.30;;;18.17;;
46290;SDS011;32023;44.444;26.006;2023-01-29T01:26:39;32.05;;;18.70;;
46290;SDS011;32023;44.444;26.006;2023-01-29T01:29:05;30.08;;;17.35;;
46290;SDS011;32023;44.444;26.006;2023-01-29T01:31:31;28.88;;;16.35;;
46290;SDS011;32023;44.444;26.006;2023-01-29T01:33:58;25.00;;;14.65;;
46290;SDS011;32023;44.444;26.006;2023-01-29T01:36:26;22.58;;;13.88;;
46290;SDS011;32023;44.444;26.006;2023-01-29T01:38:53;21.23;;;13.43;;
46290;SDS011;32023;44.444;26.006;2023-01-29T01:41:19;25.95;;;14.82;;
46290;SDS011;32023;44.444;26.006;2023-01-29T01:43:52;30.58;;;16.52;;
46290;SDS011;32023;44.444;26.006;2023-01-29T01:46:23;37.58;;;21.30;;
46290;SDS011;32023;44.444;26.006;2023-01-29T01:48:54;42.90;;;22.05;;
46290;SDS011;32023;44.444;26.006;2023-01-29T01:51:28;35.65;;;21.00;;
46290;SDS011;32023;44.444;26.006;2023-01-29T01:54:07;38.20;;;22.20;;
46290;SDS011;32023;44.444;26.006;2023-01-29T01:56:39;37.13;;;22.33;;
46290;SDS011;32023;44.444;26.006;2023-01-29T01:59:11;38.10;;;21.73;;
46290;SDS011;32023;44.444;26.006;2023-01-29T02:01:40;40.08;;;22.52;;
46290;SDS011;32023;44.444;26.006;2023-01-29T02:04:12;36.58;;;21.20;;
46290;SDS011;32023;44.444;26.006;2023-01-29T02:07:06;37.15;;;22.27;;
46290;SDS011;32023;44.444;26.006;2023-01-29T02:10:03;37.72;;;23.10;;
46290;SDS011;32023;44.444;26.006;2023-01-29T02:12:37;36.65;;;22.23;;
46290;SDS011;32023;44.444;26.006;2023-01-29T02:15:03;34.97;;;21.30;;
46290;SDS011;32023;44.444;26.006;2023-01-29T02:17:30;40.83;;;22.13;;
46290;SDS011;32023;44.444;26.006;2023-01-29T02:29:04;24.63;;;15.15;;
46290;SDS011;32023;44.444;26.006;2023-01-29T02:37:17;25.70;;;16.13;;
46290;SDS011;32023;44.444;26.006;2023-01-29T02:39:54;23.58;;;14.07;;
46290;SDS011;32023;44.444;26.006;2023-01-29T02:43:06;19.60;;;12.00;;
46290;SDS011;32023;44.444;26.006;2023-01-29T02:48:18;21.40;;;12.10;;
46290;SDS011;32023;44.444;26.006;2023-01-29T02:50:53;17.83;;;11.60;;
46290;SDS011;32023;44.444;26.006;2023-01-29T02:53:33;18.77;;;11.73;;
46290;SDS011;32023;44.444;26.006;2023-01-29T02:56:02;16.65;;;10.18;;
46290;SDS011;32023;44.444;26.006;2023-01-29T02:58:46;17.80;;;11.02;;
46290;SDS011;32023;44.444;26.006;2023-01-29T03:01:26;16.95;;;10.63;;
46290;SDS011;32023;44.444;26.006;2023-01-29T03:04:03;16.20;;;10.75;;
46290;SDS011;32023;44.444;26.006;2023-01-29T03:06:37;14.98;;;10.32;;
46290;SDS011;32023;44.444;26.006;2023-01-29T03:12:09;15.57;;;10.02;;
46290;SDS011;32023;44.444;26.006;2023-01-29T03:14:52;13.20;;;8.93;;
46290;SDS011;32023;44.444;26.006;2023-01-29T03:20:39;14.35;;;9.77;;
46290;SDS011;32023;44.444;26.006;2023-01-29T03:23:21;17.25;;;11.23;;
46290;SDS011;32023;44.444;26.006;2023-01-29T03:26:12;17.08;;;11.25;;
46290;SDS011;32023;44.444;26.006;2023-01-29T03:29:02;15.05;;;10.20;;
46290;SDS011;32023;44.444;26.006;2023-01-29T03:31:48;17.02;;;11.63;;
46290;SDS011;32023;44.444;26.006;2023-01-29T03:34:43;16.65;;;11.30;;
46290;SDS011;32023;44.444;26.006;2023-01-29T03:40:04;14.35;;;9.80;;
46290;SDS011;32023;44.444;26.006;2023-01-29T03:45:38;16.13;;;11.00;;
46290;SDS011;32023;44.444;26.006;2023-01-29T03:50:57;15.13;;;10.30;;
46290;SDS011;32023;44.444;26.006;2023-01-29T04:02:11;17.52;;;11.13;;
46290;SDS011;32023;44.444;26.006;2023-01-29T04:04:51;17.60;;;11.13;;
46290;SDS011;32023;44.444;26.006;2023-01-29T04:07:21;17.88;;;11.45;;
46290;SDS011;32023;44.444;26.006;2023-01-29T04:09:56;16.88;;;11.15;;
46290;SDS011;32023;44.444;26.006;2023-01-29T04:12:28;18.98;;;12.68;;
46290;SDS011;32023;44.444;26.006;2023-01-29T04:15:05;18.40;;;12.10;;
46290;SDS011;32023;44.444;26.006;2023-01-29T04:17:40;16.90;;;11.55;;
46290;SDS011;32023;44.444;26.006;2023-01-29T04:20:12;22.08;;;13.32;;
46290;SDS011;32023;44.444;26.006;2023-01-29T04:22:41;18.77;;;10.77;;
46290;SDS011;32023;44.444;26.006;2023-01-29T04:25:12;17.85;;;12.15;;
46290;SDS011;32023;44.444;26.006;2023-01-29T04:28:01;19.20;;;12.35;;
46290;SDS011;32023;44.444;26.006;2023-01-29T04:49:33;22.88;;;14.40;;
46290;SDS011;32023;44.444;26.006;2023-01-29T05:00:42;20.98;;;13.02;;
46290;SDS011;32023;44.444;26.006;2023-01-29T05:03:10;22.90;;;14.27;;
46290;SDS011;32023;44.444;26.006;2023-01-29T05:05:40;22.92;;;14.70;;
46290;SDS011;32023;44.444;26.006;2023-01-29T05:08:09;24.45;;;14.50;;
46290;SDS011;32023;44.444;26.006;2023-01-29T05:10:38;23.13;;;14.45;;
46290;SDS011;32023;44.444;26.006;2023-01-29T05:13:07;26.02;;;15.45;;
46290;SDS011;32023;44.444;26.006;2023-01-29T05:15:39;27.52;;;16.23;;
46290;SDS011;32023;44.444;26.006;2023-01-29T05:18:11;27.23;;;15.57;;
46290;SDS011;32023;44.444;26.006;2023-01-29T05:20:39;24.13;;;14.27;;
46290;SDS011;32023;44.444;26.006;2023-01-29T05:23:17;26.30;;;16.17;;
46290;SDS011;32023;44.444;26.006;2023-01-29T05:25:45;29.02;;;16.20;;
46290;SDS011;32023;44.444;26.006;2023-01-29T05:28:13;32.92;;;16.63;;
46290;SDS011;32023;44.444;26.006;2023-01-29T05:30:48;28.55;;;15.85;;
46290;SDS011;32023;44.444;26.006;2023-01-29T05:33:20;25.92;;;14.93;;
46290;SDS011;32023;44.444;26.006;2023-01-29T05:35:47;23.70;;;13.35;;
46290;SDS011;32023;44.444;26.006;2023-01-29T05:38:14;30.60;;;18.38;;
46290;SDS011;32023;44.444;26.006;2023-01-29T05:40:41;34.17;;;17.45;;
46290;SDS011;32023;44.444;26.006;2023-01-29T05:43:15;31.30;;;16.25;;
46290;SDS011;32023;44.444;26.006;2023-01-29T05:45:57;33.17;;;17.08;;
46290;SDS011;32023;44.444;26.006;2023-01-29T05:48:25;26.55;;;13.50;;
46290;SDS011;32023;44.444;26.006;2023-01-29T05:51:02;34.80;;;18.92;;
46290;SDS011;32023;44.444;26.006;2023-01-29T05:53:29;29.77;;;16.53;;
46290;SDS011;32023;44.444;26.006;2023-01-29T05:55:57;27.55;;;15.18;;
46290;SDS011;32023;44.444;26.006;2023-01-29T05:58:26;33.17;;;17.67;;
46290;SDS011;32023;44.444;26.006;2023-01-29T06:00:54;36.88;;;17.67;;
46290;SDS011;32023;44.444;26.006;2023-01-29T06:03:20;33.22;;;18.13;;
46290;SDS011;32023;44.444;26.006;2023-01-29T06:05:46;34.83;;;18.90;;
46290;SDS011;32023;44.444;26.006;2023-01-29T06:08:13;30.65;;;16.27;;
46290;SDS011;32023;44.444;26.006;2023-01-29T06:10:39;29.98;;;16.15;;
46290;SDS011;32023;44.444;26.006;2023-01-29T06:13:06;34.08;;;17.38;;
46290;SDS011;32023;44.444;26.006;2023-01-29T06:15:32;27.65;;;13.70;;
46290;SDS011;32023;44.444;26.006;2023-01-29T06:17:58;28.38;;;15.65;;
46290;SDS011;32023;44.444;26.006;2023-01-29T06:20:25;29.08;;;14.55;;
46290;SDS011;32023;44.444;26.006;2023-01-29T06:22:51;28.27;;;15.80;;
46290;SDS011;32023;44.444;26.006;2023-01-29T06:25:17;28.50;;;15.20;;
46290;SDS011;32023;44.444;26.006;2023-01-29T06:27:44;27.40;;;14.00;;
46290;SDS011;32023;44.444;26.006;2023-01-29T06:30:10;31.65;;;15.45;;
46290;SDS011;32023;44.444;26.006;2023-01-29T06:32:37;29.35;;;15.90;;
46290;SDS011;32023;44.444;26.006;2023-01-29T06:35:03;30.40;;;14.93;;
46290;SDS011;32023;44.444;26.006;2023-01-29T06:37:35;30.90;;;15.77;;
46290;SDS011;32023;44.444;26.006;2023-01-29T06:40:02;26.75;;;14.82;;
46290;SDS011;32023;44.444;26.006;2023-01-29T06:42:33;26.88;;;15.30;;
46290;SDS011;32023;44.444;26.006;2023-01-29T06:47:34;34.63;;;16.95;;
46290;SDS011;32023;44.444;26.006;2023-01-29T06:50:00;31.30;;;15.75;;
46290;SDS011;32023;44.444;26.006;2023-01-29T06:52:27;25.58;;;14.50;;
46290;SDS011;32023;44.444;26.006;2023-01-29T06:54:54;28.45;;;14.43;;
46290;SDS011;32023;44.444;26.006;2023-01-29T06:57:32;26.83;;;14.48;;
46290;SDS011;32023;44.444;26.006;2023-01-29T06:59:58;33.65;;;15.23;;
46290;SDS011;32023;44.444;26.006;2023-01-29T07:02:25;28.75;;;15.75;;
46290;SDS011;32023;44.444;26.006;2023-01-29T07:04:51;31.23;;;17.35;;
46290;SDS011;32023;44.444;26.006;2023-01-29T07:07:18;27.52;;;16.63;;
46290;SDS011;32023;44.444;26.006;2023-01-29T07:09:44;31.70;;;16.25;;
46290;SDS011;32023;44.444;26.006;2023-01-29T07:12:22;31.52;;;17.25;;
46290;SDS011;32023;44.444;26.006;2023-01-29T07:15:16;32.35;;;17.73;;
46290;SDS011;32023;44.444;26.006;2023-01-29T07:18:01;22.45;;;13.55;;
46290;SDS011;32023;44.444;26.006;2023-01-29T07:20:41;30.88;;;16.65;;
46290;SDS011;32023;44.444;26.006;2023-01-29T07:23:11;23.27;;;12.93;;
46290;SDS011;32023;44.444;26.006;2023-01-29T07:34:54;26.50;;;13.85;;
46290;SDS011;32023;44.444;26.006;2023-01-29T07:52:25;23.00;;;12.85;;
46290;SDS011;32023;44.444;26.006;2023-01-29T07:55:14;20.75;;;11.50;;
46290;SDS011;32023;44.444;26.006;2023-01-29T08:05:18;18.40;;;12.00;;
46290;SDS011;32023;44.444;26.006;2023-01-29T08:08:07;21.48;;;10.82;;
46290;SDS011;32023;44.444;26.006;2023-01-29T08:14:38;22.42;;;12.18;;
46290;SDS011;32023;44.444;26.006;2023-01-29T08:20:42;21.55;;;12.05;;
46290;SDS011;32023;44.444;26.006;2023-01-29T09:01:13;19.02;;;12.23;;
46290;SDS011;32023;44.444;26.006;2023-01-29T09:03:40;19.85;;;11.23;;
46290;SDS011;32023;44.444;26.006;2023-01-29T09:06:09;18.20;;;11.52;;
46290;SDS011;32023;44.444;26.006;2023-01-29T09:08:36;19.25;;;12.13;;
46290;SDS011;32023;44.444;26.006;2023-01-29T09:11:05;17.45;;;11.57;;
46290;SDS011;32023;44.444;26.006;2023-01-29T09:13:34;20.05;;;10.95;;
46290;SDS011;32023;44.444;26.006;2023-01-29T09:16:04;18.35;;;11.93;;
46290;SDS011;32023;44.444;26.006;2023-01-29T09:22:02;16.63;;;10.73;;
46290;SDS011;32023;44.444;26.006;2023-01-29T09:25:09;16.42;;;11.35;;
46290;SDS011;32023;44.444;26.006;2023-01-29T09:34:45;19.13;;;11.32;;
46290;SDS011;32023;44.444;26.006;2023-01-29T09:38:05;16.80;;;10.60;;
46290;SDS011;32023;44.444;26.006;2023-01-29T09:46:57;16.90;;;10.93;;
46290;SDS011;32023;44.444;26.006;2023-01-29T09:49:38;18.75;;;11.85;;
46290;SDS011;32023;44.444;26.006;2023-01-29T09:52:24;18.90;;;12.43;;
46290;SDS011;32023;44.444;26.006;2023-01-29T09:55:08;21.95;;;13.95;;
46290;SDS011;32023;44.444;26.006;2023-01-29T10:13:59;20.67;;;12.63;;
46290;SDS011;32023;44.444;26.006;2023-01-29T10:23:39;19.80;;;13.05;;
46290;SDS011;32023;44.444;26.006;2023-01-29T10:26:41;21.58;;;13.82;;
46290;SDS011;32023;44.444;26.006;2023-01-29T10:31:54;26.73;;;16.67;;
46290;SDS011;32023;44.444;26.006;2023-01-29T10:34:41;27.42;;;16.50;;
46290;SDS011;32023;44.444;26.006;2023-01-29T10:37:23;27.73;;;17.60;;
46290;SDS011;32023;44.444;26.006;2023-01-29T10:40:19;26.05;;;15.98;;
46290;SDS011;32023;44.444;26.006;2023-01-29T10:42:50;25.40;;;16.60;;
46290;SDS011;32023;44.444;26.006;2023-01-29T10:45:49;31.70;;;18.58;;
46290;SDS011;32023;44.444;26.006;2023-01-29T10:52:21;29.92;;;17.02;;
46290;SDS011;32023;44.444;26.006;2023-01-29T11:04:50;31.92;;;18.30;;
46290;SDS011;32023;44.444;26.006;2023-01-29T11:07:33;37.25;;;19.77;;
46290;SDS011;32023;44.444;26.006;2023-01-29T11:10:06;34.55;;;19.27;;
46290;SDS011;32023;44.444;26.006;2023-01-29T11:12:41;32.05;;;17.75;;
46290;SDS011;32023;44.444;26.006;2023-01-29T11:15:39;28.70;;;16.77;;
46290;SDS011;32023;44.444;26.006;2023-01-29T11:21:15;35.28;;;18.85;;
46290;SDS011;32023;44.444;26.006;2023-01-29T11:26:35;30.85;;;17.25;;
46290;SDS011;32023;44.444;26.006;2023-01-29T11:32:14;32.67;;;18.60;;
46290;SDS011;32023;44.444;26.006;2023-01-29T11:40:50;34.63;;;18.35;;
46290;SDS011;32023;44.444;26.006;2023-01-29T11:45:53;43.10;;;23.83;;
46290;SDS011;32023;44.444;26.006;2023-01-29T11:52:11;45.42;;;23.05;;
46290;SDS011;32023;44.444;26.006;2023-01-29T11:58:45;44.17;;;22.95;;
46290;SDS011;32023;44.444;26.006;2023-01-29T12:15:42;41.90;;;21.92;;
46290;SDS011;32023;44.444;26.006;2023-01-29T12:18:54;46.65;;;22.35;;
46290;SDS011;32023;44.444;26.006;2023-01-29T12:21:45;42.85;;;22.40;;
46290;SDS011;32023;44.444;26.006;2023-01-29T12:27:45;47.55;;;23.50;;
46290;SDS011;32023;44.444;26.006;2023-01-29T12:37:16;43.53;;;23.08;;
46290;SDS011;32023;44.444;26.006;2023-01-29T12:50:39;37.25;;;20.73;;
46290;SDS011;32023;44.444;26.006;2023-01-29T13:06:33;39.47;;;21.63;;
46290;SDS011;32023;44.444;26.006;2023-01-29T13:09:15;40.40;;;21.45;;
46290;SDS011;32023;44.444;26.006;2023-01-29T13:15:27;37.40;;;20.77;;
46290;SDS011;32023;44.444;26.006;2023-01-29T13:31:48;38.65;;;20.83;;
46290;SDS011;32023;44.444;26.006;2023-01-29T13:51:04;38.20;;;22.38;;
46290;SDS011;32023;44.444;26.006;2023-01-29T13:57:53;42.70;;;22.73;;
46290;SDS011;32023;44.444;26.006;2023-01-29T14:04:23;50.70;;;25.00;;
46290;SDS011;32023;44.444;26.006;2023-01-29T14:07:48;48.70;;;26.00;;
46290;SDS011;32023;44.444;26.006;2023-01-29T14:13:45;50.50;;;26.58;;
46290;SDS011;32023;44.444;26.006;2023-01-29T14:26:42;54.60;;;28.27;;
46290;SDS011;32023;44.444;26.006;2023-01-29T14:32:28;58.03;;;28.83;;
46290;SDS011;32023;44.444;26.006;2023-01-29T14:35:22;63.78;;;32.22;;
46290;SDS011;32023;44.444;26.006;2023-01-29T14:54:48;60.42;;;29.15;;
46290;SDS011;32023;44.444;26.006;2023-01-29T14:57:17;55.25;;;27.10;;
46290;SDS011;32023;44.444;26.006;2023-01-29T14:59:55;60.63;;;28.48;;
46290;SDS011;32023;44.444;26.006;2023-01-29T15:05:46;68.65;;;30.65;;
46290;SDS011;32023;44.444;26.006;2023-01-29T15:15:38;72.80;;;31.30;;
46290;SDS011;32023;44.444;26.006;2023-01-29T15:22:40;65.18;;;30.38;;
46290;SDS011;32023;44.444;26.006;2023-01-29T15:29:25;87.30;;;42.50;;
46290;SDS011;32023;44.444;26.006;2023-01-29T15:31:53;85.07;;;41.65;;
46290;SDS011;32023;44.444;26.006;2023-01-29T15:34:20;86.43;;;44.17;;
46290;SDS011;32023;44.444;26.006;2023-01-29T15:36:50;78.40;;;38.45;;
46290;SDS011;32023;44.444;26.006;2023-01-29T15:39:21;63.75;;;30.80;;
46290;SDS011;32023;44.444;26.006;2023-01-29T15:42:03;73.97;;;36.50;;
46290;SDS011;32023;44.444;26.006;2023-01-29T15:44:36;59.45;;;32.25;;
46290;SDS011;32023;44.444;26.006;2023-01-29T15:47:10;68.28;;;34.60;;
46290;SDS011;32023;44.444;26.006;2023-01-29T15:49:38;65.93;;;32.95;;
46290;SDS011;32023;44.444;26.006;2023-01-29T15:52:14;70.57;;;35.22;;
46290;SDS011;32023;44.444;26.006;2023-01-29T15:54:45;69.70;;;34.75;;
46290;SDS011;32023;44.444;26.006;2023-01-29T15:57:22;69.63;;;31.88;;
46290;SDS011;32023;44.444;26.006;2023-01-29T16:00:02;66.97;;;31.00;;
46290;SDS011;32023;44.444;26.006;2023-01-29T16:02:51;65.63;;;31.73;;
46290;SDS011;32023;44.444;26.006;2023-01-29T16:06:02;79.85;;;34.10;;
46290;SDS011;32023;44.444;26.006;2023-01-29T16:08:41;86.72;;;35.50;;
46290;SDS011;32023;44.444;26.006;2023-01-29T16:11:20;82.50;;;37.70;;
46290;SDS011;32023;44.444;26.006;2023-01-29T16:14:21;92.30;;;41.53;;
46290;SDS011;32023;44.444;26.006;2023-01-29T16:16:51;88.82;;;41.65;;
46290;SDS011;32023;44.444;26.006;2023-01-29T16:22:12;89.47;;;39.33;;
46290;SDS011;32023;44.444;26.006;2023-01-29T16:24:41;89.22;;;38.60;;
46290;SDS011;32023;44.444;26.006;2023-01-29T16:27:24;93.05;;;37.67;;
46290;SDS011;32023;44.444;26.006;2023-01-29T16:33:05;93.47;;;41.75;;
46290;SDS011;32023;44.444;26.006;2023-01-29T16:35:41;90.03;;;35.70;;
46290;SDS011;32023;44.444;26.006;2023-01-29T16:46:37;101.55;;;38.17;;
46290;SDS011;32023;44.444;26.006;2023-01-29T17:02:48;75.35;;;33.30;;
46290;SDS011;32023;44.444;26.006;2023-01-29T17:05:35;79.70;;;33.25;;
46290;SDS011;32023;44.444;26.006;2023-01-29T17:10:59;76.05;;;32.33;;
46290;SDS011;32023;44.444;26.006;2023-01-29T17:13:37;83.55;;;34.80;;
46290;SDS011;32023;44.444;26.006;2023-01-29T17:16:22;79.78;;;34.50;;
46290;SDS011;32023;44.444;26.006;2023-01-29T17:18:58;81.75;;;35.75;;
46290;SDS011;32023;44.444;26.006;2023-01-29T17:21:27;80.20;;;35.90;;
46290;SDS011;32023;44.444;26.006;2023-01-29T17:27:37;74.90;;;36.15;;
46290;SDS011;32023;44.444;26.006;2023-01-29T17:33:28;74.65;;;35.05;;
46290;SDS011;32023;44.444;26.006;2023-01-29T17:42:26;65.47;;;34.40;;
46290;SDS011;32023;44.444;26.006;2023-01-29T17:44:53;68.13;;;33.95;;
46290;SDS011;32023;44.444;26.006;2023-01-29T17:47:22;59.70;;;30.88;;
46290;SDS011;32023;44.444;26.006;2023-01-29T17:49:48;62.78;;;30.38;;
46290;SDS011;32023;44.444;26.006;2023-01-29T17:52:15;60.42;;;32.28;;
46290;SDS011;32023;44.444;26.006;2023-01-29T17:54:43;55.45;;;29.38;;
46290;SDS011;32023;44.444;26.006;2023-01-29T17:57:11;64.95;;;35.03;;
46290;SDS011;32023;44.444;26.006;2023-01-29T18:02:12;72.03;;;34.42;;
46290;SDS011;32023;44.444;26.006;2023-01-29T18:04:51;80.03;;;36.22;;
46290;SDS011;32023;44.444;26.006;2023-01-29T18:07:17;83.43;;;33.15;;
46290;SDS011;32023;44.444;26.006;2023-01-29T18:09:47;88.95;;;37.08;;
46290;SDS011;32023;44.444;26.006;2023-01-29T18:12:19;86.75;;;34.30;;
46290;SDS011;32023;44.444;26.006;2023-01-29T18:14:49;91.13;;;34.22;;
46290;SDS011;32023;44.444;26.006;2023-01-29T18:17:31;93.68;;;35.28;;
46290;SDS011;32023;44.444;26.006;2023-01-29T18:20:00;90.55;;;35.47;;
46290;SDS011;32023;44.444;26.006;2023-01-29T18:22:29;95.07;;;37.85;;
46290;SDS011;32023;44.444;26.006;2023-01-29T18:24:56;85.80;;;35.70;;
46290;SDS011;32023;44.444;26.006;2023-01-29T18:27:22;62.40;;;26.70;;
46290;SDS011;32023;44.444;26.006;2023-01-29T18:29:48;39.33;;;14.35;;
46290;SDS011;32023;44.444;26.006;2023-01-29T18:32:25;61.78;;;24.83;;
46290;SDS011;32023;44.444;26.006;2023-01-29T18:35:04;61.92;;;26.70;;
46290;SDS011;32023;44.444;26.006;2023-01-29T18:37:32;42.30;;;16.60;;
46290;SDS011;32023;44.444;26.006;2023-01-29T18:40:01;51.70;;;22.95;;
46290;SDS011;32023;44.444;26.006;2023-01-29T18:42:29;48.53;;;19.58;;
46290;SDS011;32023;44.444;26.006;2023-01-29T18:44:59;53.28;;;20.33;;
46290;SDS011;32023;44.444;26.006;2023-01-29T18:47:27;36.42;;;15.98;;
46290;SDS011;32023;44.444;26.006;2023-01-29T18:49:54;47.13;;;18.80;;
46290;SDS011;32023;44.444;26.006;2023-01-29T18:52:24;40.22;;;15.52;;
46290;SDS011;32023;44.444;26.006;2023-01-29T18:54:51;45.15;;;17.83;;
46290;SDS011;32023;44.444;26.006;2023-01-29T18:57:21;44.47;;;17.65;;
46290;SDS011;32023;44.444;26.006;2023-01-29T18:59:47;39.60;;;16.23;;
46290;SDS011;32023;44.444;26.006;2023-01-29T19:02:17;32.30;;;14.65;;
46290;SDS011;32023;44.444;26.006;2023-01-29T19:04:46;29.90;;;14.18;;
46290;SDS011;32023;44.444;26.006;2023-01-29T19:07:15;29.42;;;13.20;;
46290;SDS011;32023;44.444;26.006;2023-01-29T19:09:42;29.67;;;13.85;;
46290;SDS011;32023;44.444;26.006;2023-01-29T19:12:10;23.67;;;11.18;;
46290;SDS011;32023;44.444;26.006;2023-01-29T19:14:37;27.17;;;14.73;;
46290;SDS011;32023;44.444;26.006;2023-01-29T19:17:03;24.88;;;11.55;;
46290;SDS011;32023;44.444;26.006;2023-01-29T19:19:30;15.20;;;7.82;;
46290;SDS011;32023;44.444;26.006;2023-01-29T19:22:00;28.67;;;14.02;;
46290;SDS011;32023;44.444;26.006;2023-01-29T19:24:26;26.63;;;13.20;;
46290;SDS011;32023;44.444;26.006;2023-01-29T19:27:02;23.58;;;13.13;;
46290;SDS011;32023;44.444;26.006;2023-01-29T19:29:32;28.65;;;14.68;;
46290;SDS011;32023;44.444;26.006;2023-01-29T19:32:05;14.30;;;7.70;;
46290;SDS011;32023;44.444;26.006;2023-01-29T19:34:53;18.52;;;10.02;;
46290;SDS011;32023;44.444;26.006;2023-01-29T19:37:19;18.10;;;9.35;;
46290;SDS011;32023;44.444;26.006;2023-01-29T19:39:49;26.75;;;13.20;;
46290;SDS011;32023;44.444;26.006;2023-01-29T19:42:15;26.42;;;12.63;;
46290;SDS011;32023;44.444;26.006;2023-01-29T19:44:43;20.55;;;12.10;;
46290;SDS011;32023;44.444;26.006;2023-01-29T19:47:09;26.58;;;13.88;;
46290;SDS011;32023;44.444;26.006;2023-01-29T19:49:36;18.67;;;9.48;;
46290;SDS011;32023;44.444;26.006;2023-01-29T19:52:04;13.63;;;7.72;;
46290;SDS011;32023;44.444;26.006;2023-01-29T19:54:39;27.08;;;13.35;;
46290;SDS011;32023;44.444;26.006;2023-01-29T19:57:10;25.63;;;12.13;;
46290;SDS011;32023;44.444;26.006;2023-01-29T19:59:43;24.15;;;13.38;;
46290;SDS011;32023;44.444;26.006;2023-01-29T20:02:19;28.85;;;15.98;;
46290;SDS011;32023;44.444;26.006;2023-01-29T20:05:29;31.80;;;15.27;;
46290;SDS011;32023;44.444;26.006;2023-01-29T20:09:00;29.92;;;14.57;;
46290;SDS011;32023;44.444;26.006;2023-01-29T20:12:08;25.65;;;13.45;;
46290;SDS011;32023;44.444;26.006;2023-01-29T20:14:38;11.52;;;6.47;;
46290;SDS011;32023;44.444;26.006;2023-01-29T20:17:36;24.60;;;13.15;;
46290;SDS011;32023;44.444;26.006;2023-01-29T20:26:25;24.23;;;11.52;;
46290;SDS011;32023;44.444;26.006;2023-01-29T20:29:53;28.63;;;14.07;;
46290;SDS011;32023;44.444;26.006;2023-01-29T20:34:55;22.45;;;12.65;;
46290;SDS011;32023;44.444;26.006;2023-01-29T20:37:35;30.38;;;13.10;;
46290;SDS011;32023;44.444;26.006;2023-01-29T20:40:02;26.58;;;12.82;;
46290;SDS011;32023;44.444;26.006;2023-01-29T20:43:10;28.58;;;14.63;;
46290;SDS011;32023;44.444;26.006;2023-01-29T20:46:05;33.47;;;16.85;;
46290;SDS011;32023;44.444;26.006;2023-01-29T20:48:34;26.42;;;14.23;;
46290;SDS011;32023;44.444;26.006;2023-01-29T20:54:40;32.95;;;16.77;;
46290;SDS011;32023;44.444;26.006;2023-01-29T20:57:06;35.20;;;18.27;;
46290;SDS011;32023;44.444;26.006;2023-01-29T20:59:33;28.42;;;14.25;;
46290;SDS011;32023;44.444;26.006;2023-01-29T21:02:03;29.27;;;14.88;;
46290;SDS011;32023;44.444;26.006;2023-01-29T21:04:31;29.10;;;14.98;;
46290;SDS011;32023;44.444;26.006;2023-01-29T21:06:57;34.08;;;16.77;;
46290;SDS011;32023;44.444;26.006;2023-01-29T21:09:24;29.25;;;16.67;;
46290;SDS011;32023;44.444;26.006;2023-01-29T21:11:50;32.28;;;18.58;;
46290;SDS011;32023;44.444;26.006;2023-01-29T21:14:17;29.95;;;16.77;;
46290;SDS011;32023;44.444;26.006;2023-01-29T21:16:45;30.45;;;17.10;;
46290;SDS011;32023;44.444;26.006;2023-01-29T21:19:17;29.83;;;14.80;;
46290;SDS011;32023;44.444;26.006;2023-01-29T21:21:47;28.42;;;15.80;;
46290;SDS011;32023;44.444;26.006;2023-01-29T21:24:16;30.63;;;15.38;;
46290;SDS011;32023;44.444;26.006;2023-01-29T21:26:46;35.55;;;15.65;;
46290;SDS011;32023;44.444;26.006;2023-01-29T21:29:12;22.83;;;12.32;;
46290;SDS011;32023;44.444;26.006;2023-01-29T21:31:39;32.63;;;15.52;;
46290;SDS011;32023;44.444;26.006;2023-01-29T21:34:06;24.95;;;12.88;;
46290;SDS011;32023;44.444;26.006;2023-01-29T21:36:33;30.17;;;15.35;;
46290;SDS011;32023;44.444;26.006;2023-01-29T21:39:05;25.90;;;14.68;;
46290;SDS011;32023;44.444;26.006;2023-01-29T21:44:34;33.85;;;15.82;;
46290;SDS011;32023;44.444;26.006;2023-01-29T21:47:01;28.55;;;14.90;;
46290;SDS011;32023;44.444;26.006;2023-01-29T21:49:46;26.92;;;14.40;;
46290;SDS011;32023;44.444;26.006;2023-01-29T21:52:16;30.05;;;14.23;;
46290;SDS011;32023;44.444;26.006;2023-01-29T21:54:45;35.03;;;16.33;;
46290;SDS011;32023;44.444;26.006;2023-01-29T21:57:14;31.73;;;15.48;;
46290;SDS011;32023;44.444;26.006;2023-01-29T21:59:41;30.23;;;14.20;;
46290;SDS011;32023;44.444;26.006;2023-01-29T22:02:10;24.52;;;10.90;;
46290;SDS011;32023;44.444;26.006;2023-01-29T22:04:41;24.92;;;14.55;;